Terminal Aerodrome Forecast
Issued by NWS Portland, OR

Home | Current Version | Previous Version | Text Only | Print | Product List | Glossary On
Versions: 1 2 3 4 5 6 7 8 9 10 11 12 13 14 15 16 17 18 19 20 21 22 23 24
000
FTUS46 KPQR 210142 AAA
TAFAST
TAF AMD
KAST 210142Z 2102/2124 19005KT P6SM -SHRA BKN025 OVC060
     FM210500 08004KT P6SM SCT025 BKN040
     FM210900 03005KT P6SM SCT025 BKN040
     FM211200 35009KT P6SM OVC050
     FM211800 32012KT P6SM -RA OVC025=

USA.gov is the U.S. government's official web portal to all federal, state and local government web resources and services.